sensor_id;sensor_type;location;lat;lon;timestamp;P1;durP1;ratioP1;P2;durP2;ratioP2
36449;SDS011;22475;51.390;7.180;2022-12-18T00:02:11;4.68;;;4.03;;
36449;SDS011;22475;51.390;7.180;2022-12-18T00:04:38;5.60;;;3.33;;
36449;SDS011;22475;51.390;7.180;2022-12-18T00:07:06;6.05;;;3.25;;
36449;SDS011;22475;51.390;7.180;2022-12-18T00:09:33;6.65;;;3.85;;
36449;SDS011;22475;51.390;7.180;2022-12-18T00:12:00;7.20;;;4.30;;
36449;SDS011;22475;51.390;7.180;2022-12-18T00:14:27;8.40;;;3.75;;
36449;SDS011;22475;51.390;7.180;2022-12-18T00:16:53;4.20;;;2.90;;
36449;SDS011;22475;51.390;7.180;2022-12-18T00:19:20;5.10;;;2.60;;
36449;SDS011;22475;51.390;7.180;2022-12-18T00:21:47;5.35;;;3.60;;
36449;SDS011;22475;51.390;7.180;2022-12-18T00:24:15;6.90;;;3.47;;
36449;SDS011;22475;51.390;7.180;2022-12-18T00:26:42;3.78;;;3.03;;
36449;SDS011;22475;51.390;7.180;2022-12-18T00:29:10;3.97;;;2.95;;
36449;SDS011;22475;51.390;7.180;2022-12-18T00:31:39;4.80;;;3.25;;
36449;SDS011;22475;51.390;7.180;2022-12-18T00:34:08;6.63;;;3.50;;
36449;SDS011;22475;51.390;7.180;2022-12-18T00:36:37;4.07;;;2.85;;
36449;SDS011;22475;51.390;7.180;2022-12-18T00:39:04;6.68;;;3.40;;
36449;SDS011;22475;51.390;7.180;2022-12-18T00:41:32;3.17;;;2.83;;
36449;SDS011;22475;51.390;7.180;2022-12-18T00:44:17;3.80;;;3.00;;
36449;SDS011;22475;51.390;7.180;2022-12-18T00:46:45;2.45;;;2.17;;
36449;SDS011;22475;51.390;7.180;2022-12-18T00:49:13;3.70;;;2.45;;
36449;SDS011;22475;51.390;7.180;2022-12-18T00:51:40;3.20;;;2.72;;
36449;SDS011;22475;51.390;7.180;2022-12-18T00:54:07;4.30;;;2.85;;
36449;SDS011;22475;51.390;7.180;2022-12-18T00:56:36;3.25;;;2.85;;
36449;SDS011;22475;51.390;7.180;2022-12-18T00:59:03;5.25;;;3.00;;
36449;SDS011;22475;51.390;7.180;2022-12-18T01:01:30;3.90;;;2.65;;
36449;SDS011;22475;51.390;7.180;2022-12-18T01:03:57;3.22;;;2.53;;
36449;SDS011;22475;51.390;7.180;2022-12-18T01:06:24;3.55;;;2.47;;
36449;SDS011;22475;51.390;7.180;2022-12-18T01:08:51;3.65;;;2.38;;
36449;SDS011;22475;51.390;7.180;2022-12-18T01:11:19;6.95;;;3.15;;
36449;SDS011;22475;51.390;7.180;2022-12-18T01:13:47;3.25;;;2.60;;
36449;SDS011;22475;51.390;7.180;2022-12-18T01:16:15;4.55;;;2.42;;
36449;SDS011;22475;51.390;7.180;2022-12-18T01:18:44;5.63;;;2.63;;
36449;SDS011;22475;51.390;7.180;2022-12-18T01:21:11;7.75;;;2.72;;
36449;SDS011;22475;51.390;7.180;2022-12-18T01:23:46;5.78;;;3.10;;
36449;SDS011;22475;51.390;7.180;2022-12-18T01:26:13;2.65;;;2.10;;
36449;SDS011;22475;51.390;7.180;2022-12-18T01:28:41;2.50;;;1.92;;
36449;SDS011;22475;51.390;7.180;2022-12-18T01:31:12;5.50;;;2.38;;
36449;SDS011;22475;51.390;7.180;2022-12-18T01:33:40;3.15;;;2.60;;
36449;SDS011;22475;51.390;7.180;2022-12-18T01:36:07;2.97;;;2.60;;
36449;SDS011;22475;51.390;7.180;2022-12-18T01:38:34;4.35;;;2.70;;
36449;SDS011;22475;51.390;7.180;2022-12-18T01:41:01;2.58;;;1.95;;
36449;SDS011;22475;51.390;7.180;2022-12-18T01:46:13;3.00;;;2.30;;
36449;SDS011;22475;51.390;7.180;2022-12-18T01:48:40;1.70;;;1.60;;
36449;SDS011;22475;51.390;7.180;2022-12-18T01:51:09;4.38;;;2.72;;
36449;SDS011;22475;51.390;7.180;2022-12-18T01:53:37;4.65;;;2.67;;
36449;SDS011;22475;51.390;7.180;2022-12-18T01:56:07;6.22;;;2.10;;
36449;SDS011;22475;51.390;7.180;2022-12-18T01:58:35;5.75;;;2.80;;
36449;SDS011;22475;51.390;7.180;2022-12-18T02:01:07;2.55;;;2.35;;
36449;SDS011;22475;51.390;7.180;2022-12-18T02:03:36;4.80;;;2.50;;
36449;SDS011;22475;51.390;7.180;2022-12-18T02:06:06;3.30;;;2.47;;
36449;SDS011;22475;51.390;7.180;2022-12-18T02:08:40;4.30;;;2.03;;
36449;SDS011;22475;51.390;7.180;2022-12-18T02:11:13;3.60;;;2.00;;
36449;SDS011;22475;51.390;7.180;2022-12-18T02:13:51;4.00;;;2.25;;
36449;SDS011;22475;51.390;7.180;2022-12-18T02:16:24;2.83;;;2.13;;
36449;SDS011;22475;51.390;7.180;2022-12-18T02:18:57;2.42;;;2.15;;
36449;SDS011;22475;51.390;7.180;2022-12-18T02:21:32;2.88;;;2.13;;
36449;SDS011;22475;51.390;7.180;2022-12-18T02:24:11;2.85;;;2.10;;
36449;SDS011;22475;51.390;7.180;2022-12-18T02:26:52;2.97;;;1.95;;
36449;SDS011;22475;51.390;7.180;2022-12-18T02:29:22;2.95;;;1.58;;
36449;SDS011;22475;51.390;7.180;2022-12-18T02:31:52;2.97;;;1.77;;
36449;SDS011;22475;51.390;7.180;2022-12-18T02:34:28;2.67;;;1.83;;
36449;SDS011;22475;51.390;7.180;2022-12-18T02:36:57;4.05;;;2.17;;
36449;SDS011;22475;51.390;7.180;2022-12-18T02:39:28;2.85;;;1.63;;
36449;SDS011;22475;51.390;7.180;2022-12-18T02:41:58;2.78;;;2.05;;
36449;SDS011;22475;51.390;7.180;2022-12-18T02:44:27;3.05;;;1.67;;
36449;SDS011;22475;51.390;7.180;2022-12-18T02:46:54;2.08;;;1.65;;
36449;SDS011;22475;51.390;7.180;2022-12-18T02:49:23;3.22;;;2.35;;
36449;SDS011;22475;51.390;7.180;2022-12-18T02:51:59;3.45;;;2.08;;
36449;SDS011;22475;51.390;7.180;2022-12-18T02:54:36;1.75;;;1.65;;
36449;SDS011;22475;51.390;7.180;2022-12-18T02:57:14;4.60;;;1.73;;
36449;SDS011;22475;51.390;7.180;2022-12-18T02:59:47;1.80;;;1.70;;
36449;SDS011;22475;51.390;7.180;2022-12-18T03:02:23;3.22;;;2.10;;
36449;SDS011;22475;51.390;7.180;2022-12-18T03:04:55;1.98;;;1.77;;
36449;SDS011;22475;51.390;7.180;2022-12-18T03:07:32;4.30;;;2.08;;
36449;SDS011;22475;51.390;7.180;2022-12-18T03:10:03;1.80;;;1.35;;
36449;SDS011;22475;51.390;7.180;2022-12-18T03:12:36;2.45;;;1.83;;
36449;SDS011;22475;51.390;7.180;2022-12-18T03:15:08;2.10;;;1.90;;
36449;SDS011;22475;51.390;7.180;2022-12-18T03:17:39;2.45;;;2.25;;
36449;SDS011;22475;51.390;7.180;2022-12-18T03:20:12;3.00;;;2.15;;
36449;SDS011;22475;51.390;7.180;2022-12-18T03:22:41;2.97;;;2.60;;
36449;SDS011;22475;51.390;7.180;2022-12-18T03:25:13;2.92;;;2.17;;
36449;SDS011;22475;51.390;7.180;2022-12-18T03:27:43;6.60;;;2.40;;
36449;SDS011;22475;51.390;7.180;2022-12-18T03:30:13;2.67;;;2.10;;
36449;SDS011;22475;51.390;7.180;2022-12-18T03:32:42;5.78;;;2.40;;
36449;SDS011;22475;51.390;7.180;2022-12-18T03:35:13;3.47;;;2.13;;
36449;SDS011;22475;51.390;7.180;2022-12-18T03:37:44;5.22;;;2.28;;
36449;SDS011;22475;51.390;7.180;2022-12-18T03:40:11;2.60;;;2.40;;
36449;SDS011;22475;51.390;7.180;2022-12-18T03:42:39;3.85;;;1.95;;
36449;SDS011;22475;51.390;7.180;2022-12-18T03:45:13;2.78;;;1.83;;
36449;SDS011;22475;51.390;7.180;2022-12-18T03:47:50;2.60;;;1.92;;
36449;SDS011;22475;51.390;7.180;2022-12-18T03:50:27;3.10;;;1.95;;
36449;SDS011;22475;51.390;7.180;2022-12-18T03:52:59;2.28;;;1.73;;
36449;SDS011;22475;51.390;7.180;2022-12-18T03:55:32;1.67;;;1.55;;
36449;SDS011;22475;51.390;7.180;2022-12-18T03:58:03;2.78;;;2.15;;
36449;SDS011;22475;51.390;7.180;2022-12-18T04:00:32;2.53;;;2.05;;
36449;SDS011;22475;51.390;7.180;2022-12-18T04:03:00;3.08;;;1.50;;
36449;SDS011;22475;51.390;7.180;2022-12-18T04:05:28;4.38;;;1.90;;
36449;SDS011;22475;51.390;7.180;2022-12-18T04:07:56;3.20;;;2.22;;
36449;SDS011;22475;51.390;7.180;2022-12-18T04:10:23;1.98;;;1.50;;
36449;SDS011;22475;51.390;7.180;2022-12-18T04:12:50;1.38;;;1.20;;
36449;SDS011;22475;51.390;7.180;2022-12-18T04:15:23;3.45;;;2.10;;
36449;SDS011;22475;51.390;7.180;2022-12-18T04:17:50;1.85;;;1.70;;
36449;SDS011;22475;51.390;7.180;2022-12-18T04:20:16;2.78;;;1.70;;
36449;SDS011;22475;51.390;7.180;2022-12-18T04:22:44;3.70;;;2.60;;
36449;SDS011;22475;51.390;7.180;2022-12-18T04:25:10;1.75;;;1.42;;
36449;SDS011;22475;51.390;7.180;2022-12-18T04:27:38;1.92;;;1.80;;
36449;SDS011;22475;51.390;7.180;2022-12-18T04:30:05;2.97;;;1.90;;
36449;SDS011;22475;51.390;7.180;2022-12-18T04:32:34;1.90;;;1.38;;
36449;SDS011;22475;51.390;7.180;2022-12-18T04:35:01;2.22;;;2.03;;
36449;SDS011;22475;51.390;7.180;2022-12-18T04:37:29;2.67;;;1.75;;
36449;SDS011;22475;51.390;7.180;2022-12-18T04:39:56;1.77;;;1.67;;
36449;SDS011;22475;51.390;7.180;2022-12-18T04:42:22;2.28;;;1.90;;
36449;SDS011;22475;51.390;7.180;2022-12-18T04:44:49;2.95;;;1.80;;
36449;SDS011;22475;51.390;7.180;2022-12-18T04:47:16;3.83;;;2.15;;
36449;SDS011;22475;51.390;7.180;2022-12-18T04:49:44;2.72;;;1.83;;
36449;SDS011;22475;51.390;7.180;2022-12-18T04:52:11;1.85;;;1.73;;
36449;SDS011;22475;51.390;7.180;2022-12-18T04:54:37;2.13;;;1.83;;
36449;SDS011;22475;51.390;7.180;2022-12-18T04:57:04;2.70;;;1.85;;
36449;SDS011;22475;51.390;7.180;2022-12-18T04:59:31;3.63;;;1.55;;
36449;SDS011;22475;51.390;7.180;2022-12-18T05:01:57;4.18;;;1.73;;
36449;SDS011;22475;51.390;7.180;2022-12-18T05:04:24;1.45;;;0.90;;
36449;SDS011;22475;51.390;7.180;2022-12-18T05:06:52;4.57;;;1.98;;
36449;SDS011;22475;51.390;7.180;2022-12-18T05:09:19;6.13;;;2.08;;
36449;SDS011;22475;51.390;7.180;2022-12-18T05:11:46;2.05;;;1.45;;
36449;SDS011;22475;51.390;7.180;2022-12-18T05:14:13;2.50;;;2.00;;
36449;SDS011;22475;51.390;7.180;2022-12-18T05:16:40;1.90;;;1.67;;
36449;SDS011;22475;51.390;7.180;2022-12-18T05:19:07;1.27;;;1.17;;
36449;SDS011;22475;51.390;7.180;2022-12-18T05:21:33;3.15;;;1.42;;
36449;SDS011;22475;51.390;7.180;2022-12-18T05:24:01;1.48;;;1.38;;
36449;SDS011;22475;51.390;7.180;2022-12-18T05:26:28;4.10;;;1.70;;
36449;SDS011;22475;51.390;7.180;2022-12-18T05:28:55;1.70;;;1.40;;
36449;SDS011;22475;51.390;7.180;2022-12-18T05:31:22;1.88;;;1.58;;
36449;SDS011;22475;51.390;7.180;2022-12-18T05:33:49;2.13;;;1.65;;
36449;SDS011;22475;51.390;7.180;2022-12-18T05:36:16;2.80;;;1.80;;
36449;SDS011;22475;51.390;7.180;2022-12-18T05:38:42;2.58;;;1.83;;
36449;SDS011;22475;51.390;7.180;2022-12-18T05:41:11;2.38;;;1.70;;
36449;SDS011;22475;51.390;7.180;2022-12-18T05:43:40;5.22;;;1.50;;
36449;SDS011;22475;51.390;7.180;2022-12-18T05:46:07;1.20;;;1.10;;
36449;SDS011;22475;51.390;7.180;2022-12-18T05:48:35;2.65;;;1.80;;
36449;SDS011;22475;51.390;7.180;2022-12-18T05:51:05;2.70;;;1.30;;
36449;SDS011;22475;51.390;7.180;2022-12-18T05:53:33;1.98;;;1.23;;
36449;SDS011;22475;51.390;7.180;2022-12-18T05:56:00;1.77;;;1.55;;
36449;SDS011;22475;51.390;7.180;2022-12-18T05:58:29;1.98;;;1.73;;
36449;SDS011;22475;51.390;7.180;2022-12-18T06:00:57;1.50;;;1.40;;
36449;SDS011;22475;51.390;7.180;2022-12-18T06:03:31;2.55;;;1.83;;
36449;SDS011;22475;51.390;7.180;2022-12-18T06:05:58;1.83;;;1.50;;
36449;SDS011;22475;51.390;7.180;2022-12-18T06:08:24;1.45;;;1.00;;
36449;SDS011;22475;51.390;7.180;2022-12-18T06:10:52;1.33;;;1.23;;
36449;SDS011;22475;51.390;7.180;2022-12-18T06:13:19;2.10;;;1.42;;
36449;SDS011;22475;51.390;7.180;2022-12-18T06:15:47;2.13;;;1.02;;
36449;SDS011;22475;51.390;7.180;2022-12-18T06:18:14;1.55;;;1.23;;
36449;SDS011;22475;51.390;7.180;2022-12-18T06:20:41;2.42;;;1.58;;
36449;SDS011;22475;51.390;7.180;2022-12-18T06:23:07;4.65;;;1.48;;
36449;SDS011;22475;51.390;7.180;2022-12-18T06:25:36;2.38;;;1.75;;
36449;SDS011;22475;51.390;7.180;2022-12-18T06:28:04;1.60;;;1.35;;
36449;SDS011;22475;51.390;7.180;2022-12-18T06:30:31;1.90;;;1.80;;
36449;SDS011;22475;51.390;7.180;2022-12-18T06:32:59;2.55;;;1.40;;
36449;SDS011;22475;51.390;7.180;2022-12-18T06:35:26;1.73;;;1.63;;
36449;SDS011;22475;51.390;7.180;2022-12-18T06:37:53;2.55;;;1.85;;
36449;SDS011;22475;51.390;7.180;2022-12-18T06:40:20;1.83;;;1.08;;
36449;SDS011;22475;51.390;7.180;2022-12-18T06:42:47;3.10;;;2.38;;
36449;SDS011;22475;51.390;7.180;2022-12-18T06:45:13;2.38;;;2.17;;
36449;SDS011;22475;51.390;7.180;2022-12-18T06:47:40;2.95;;;1.92;;
36449;SDS011;22475;51.390;7.180;2022-12-18T06:50:08;1.50;;;1.40;;
36449;SDS011;22475;51.390;7.180;2022-12-18T06:52:35;1.15;;;1.00;;
36449;SDS011;22475;51.390;7.180;2022-12-18T06:55:04;2.92;;;1.48;;
36449;SDS011;22475;51.390;7.180;2022-12-18T06:57:34;1.55;;;1.45;;
36449;SDS011;22475;51.390;7.180;2022-12-18T07:00:01;2.28;;;1.40;;
36449;SDS011;22475;51.390;7.180;2022-12-18T07:02:28;1.55;;;1.45;;
36449;SDS011;22475;51.390;7.180;2022-12-18T07:04:54;2.15;;;1.58;;
36449;SDS011;22475;51.390;7.180;2022-12-18T07:07:22;2.50;;;1.77;;
36449;SDS011;22475;51.390;7.180;2022-12-18T07:09:50;2.17;;;1.65;;
36449;SDS011;22475;51.390;7.180;2022-12-18T07:12:17;2.35;;;2.10;;
36449;SDS011;22475;51.390;7.180;2022-12-18T07:14:43;6.20;;;3.03;;
36449;SDS011;22475;51.390;7.180;2022-12-18T07:17:10;3.33;;;1.90;;
36449;SDS011;22475;51.390;7.180;2022-12-18T07:19:37;8.55;;;2.20;;
36449;SDS011;22475;51.390;7.180;2022-12-18T07:22:03;4.15;;;2.28;;
36449;SDS011;22475;51.390;7.180;2022-12-18T07:24:33;5.80;;;2.22;;
36449;SDS011;22475;51.390;7.180;2022-12-18T07:27:00;2.03;;;1.65;;
36449;SDS011;22475;51.390;7.180;2022-12-18T07:29:27;2.78;;;2.47;;
36449;SDS011;22475;51.390;7.180;2022-12-18T07:31:54;2.15;;;1.83;;
36449;SDS011;22475;51.390;7.180;2022-12-18T07:34:20;3.30;;;2.75;;
36449;SDS011;22475;51.390;7.180;2022-12-18T07:36:47;4.68;;;3.42;;
36449;SDS011;22475;51.390;7.180;2022-12-18T07:39:14;4.03;;;2.45;;
36449;SDS011;22475;51.390;7.180;2022-12-18T07:41:42;2.10;;;1.50;;
36449;SDS011;22475;51.390;7.180;2022-12-18T07:44:29;2.33;;;1.90;;
36449;SDS011;22475;51.390;7.180;2022-12-18T07:46:55;5.20;;;2.47;;
36449;SDS011;22475;51.390;7.180;2022-12-18T07:49:22;4.07;;;2.47;;
36449;SDS011;22475;51.390;7.180;2022-12-18T07:51:49;2.28;;;2.00;;
36449;SDS011;22475;51.390;7.180;2022-12-18T07:54:16;2.80;;;2.50;;
36449;SDS011;22475;51.390;7.180;2022-12-18T07:56:44;1.67;;;1.55;;
36449;SDS011;22475;51.390;7.180;2022-12-18T07:59:11;6.82;;;2.08;;
36449;SDS011;22475;51.390;7.180;2022-12-18T08:01:38;2.67;;;2.05;;
36449;SDS011;22475;51.390;7.180;2022-12-18T08:04:04;6.07;;;1.88;;
36449;SDS011;22475;51.390;7.180;2022-12-18T08:06:31;2.03;;;1.83;;
36449;SDS011;22475;51.390;7.180;2022-12-18T08:08:58;4.85;;;1.73;;
36449;SDS011;22475;51.390;7.180;2022-12-18T08:11:25;2.38;;;2.00;;
36449;SDS011;22475;51.390;7.180;2022-12-18T08:13:55;1.80;;;1.48;;
36449;SDS011;22475;51.390;7.180;2022-12-18T08:16:22;1.67;;;1.58;;
36449;SDS011;22475;51.390;7.180;2022-12-18T08:18:49;3.42;;;1.77;;
36449;SDS011;22475;51.390;7.180;2022-12-18T08:21:18;2.95;;;1.45;;
36449;SDS011;22475;51.390;7.180;2022-12-18T08:23:47;3.63;;;2.10;;
36449;SDS011;22475;51.390;7.180;2022-12-18T08:26:15;3.90;;;1.98;;
36449;SDS011;22475;51.390;7.180;2022-12-18T08:28:41;2.13;;;1.98;;
36449;SDS011;22475;51.390;7.180;2022-12-18T08:31:10;2.50;;;1.38;;
36449;SDS011;22475;51.390;7.180;2022-12-18T08:33:37;1.35;;;1.23;;
36449;SDS011;22475;51.390;7.180;2022-12-18T08:36:05;1.20;;;1.10;;
36449;SDS011;22475;51.390;7.180;2022-12-18T08:38:33;2.33;;;1.38;;
36449;SDS011;22475;51.390;7.180;2022-12-18T08:41:00;5.97;;;3.97;;
36449;SDS011;22475;51.390;7.180;2022-12-18T08:43:27;3.50;;;1.73;;
36449;SDS011;22475;51.390;7.180;2022-12-18T08:46:13;3.38;;;2.95;;
36449;SDS011;22475;51.390;7.180;2022-12-18T08:48:40;35.17;;;5.18;;
36449;SDS011;22475;51.390;7.180;2022-12-18T08:51:06;29.13;;;3.45;;
36449;SDS011;22475;51.390;7.180;2022-12-18T08:53:34;15.93;;;3.15;;
36449;SDS011;22475;51.390;7.180;2022-12-18T08:56:01;16.63;;;3.58;;
36449;SDS011;22475;51.390;7.180;2022-12-18T08:58:28;9.10;;;1.85;;
36449;SDS011;22475;51.390;7.180;2022-12-18T09:00:59;5.22;;;1.85;;
36449;SDS011;22475;51.390;7.180;2022-12-18T09:03:28;6.82;;;1.35;;
36449;SDS011;22475;51.390;7.180;2022-12-18T09:05:54;4.80;;;1.45;;
36449;SDS011;22475;51.390;7.180;2022-12-18T09:08:21;5.55;;;1.95;;
36449;SDS011;22475;51.390;7.180;2022-12-18T09:10:48;4.75;;;1.48;;
36449;SDS011;22475;51.390;7.180;2022-12-18T09:13:16;5.18;;;1.38;;
36449;SDS011;22475;51.390;7.180;2022-12-18T09:15:43;14.50;;;2.50;;
36449;SDS011;22475;51.390;7.180;2022-12-18T09:18:12;22.42;;;2.05;;
36449;SDS011;22475;51.390;7.180;2022-12-18T09:20:40;5.95;;;1.95;;
36449;SDS011;22475;51.390;7.180;2022-12-18T09:23:07;12.02;;;2.33;;
36449;SDS011;22475;51.390;7.180;2022-12-18T09:25:35;10.00;;;1.92;;
36449;SDS011;22475;51.390;7.180;2022-12-18T09:28:03;5.93;;;1.92;;
36449;SDS011;22475;51.390;7.180;2022-12-18T09:30:31;6.25;;;2.25;;
36449;SDS011;22475;51.390;7.180;2022-12-18T09:32:59;7.43;;;2.50;;
36449;SDS011;22475;51.390;7.180;2022-12-18T09:35:25;3.08;;;1.48;;
36449;SDS011;22475;51.390;7.180;2022-12-18T09:37:54;2.55;;;1.55;;
36449;SDS011;22475;51.390;7.180;2022-12-18T09:40:21;1.65;;;1.45;;
36449;SDS011;22475;51.390;7.180;2022-12-18T09:42:52;6.47;;;1.80;;
36449;SDS011;22475;51.390;7.180;2022-12-18T09:45:22;2.95;;;1.67;;
36449;SDS011;22475;51.390;7.180;2022-12-18T09:47:50;1.85;;;0.93;;
36449;SDS011;22475;51.390;7.180;2022-12-18T09:50:21;2.80;;;1.35;;
36449;SDS011;22475;51.390;7.180;2022-12-18T09:52:55;1.65;;;1.38;;
36449;SDS011;22475;51.390;7.180;2022-12-18T09:55:24;1.92;;;1.20;;
36449;SDS011;22475;51.390;7.180;2022-12-18T09:57:56;2.50;;;1.48;;
36449;SDS011;22475;51.390;7.180;2022-12-18T10:00:38;1.50;;;1.30;;
36449;SDS011;22475;51.390;7.180;2022-12-18T10:03:08;3.13;;;1.60;;
36449;SDS011;22475;51.390;7.180;2022-12-18T10:05:37;1.40;;;1.30;;
36449;SDS011;22475;51.390;7.180;2022-12-18T10:08:11;5.45;;;1.60;;
36449;SDS011;22475;51.390;7.180;2022-12-18T10:10:46;1.17;;;1.05;;
36449;SDS011;22475;51.390;7.180;2022-12-18T10:13:18;2.88;;;1.38;;
36449;SDS011;22475;51.390;7.180;2022-12-18T10:15:56;3.17;;;1.42;;
36449;SDS011;22475;51.390;7.180;2022-12-18T10:18:32;2.25;;;2.15;;
36449;SDS011;22475;51.390;7.180;2022-12-18T10:21:23;3.80;;;1.88;;
36449;SDS011;22475;51.390;7.180;2022-12-18T10:23:58;2.50;;;1.38;;
36449;SDS011;22475;51.390;7.180;2022-12-18T10:26:39;3.22;;;1.73;;
36449;SDS011;22475;51.390;7.180;2022-12-18T10:29:08;4.85;;;1.58;;
36449;SDS011;22475;51.390;7.180;2022-12-18T10:31:38;2.03;;;1.35;;
36449;SDS011;22475;51.390;7.180;2022-12-18T10:34:08;2.72;;;1.50;;
36449;SDS011;22475;51.390;7.180;2022-12-18T10:36:35;1.75;;;1.30;;
36449;SDS011;22475;51.390;7.180;2022-12-18T10:39:15;4.90;;;2.47;;
36449;SDS011;22475;51.390;7.180;2022-12-18T10:41:47;2.22;;;1.73;;
36449;SDS011;22475;51.390;7.180;2022-12-18T10:44:16;3.38;;;1.70;;
36449;SDS011;22475;51.390;7.180;2022-12-18T10:46:44;1.45;;;1.00;;
36449;SDS011;22475;51.390;7.180;2022-12-18T10:49:19;2.80;;;1.70;;
36449;SDS011;22475;51.390;7.180;2022-12-18T10:51:49;1.75;;;1.65;;
36449;SDS011;22475;51.390;7.180;2022-12-18T10:54:19;10.10;;;4.30;;
36449;SDS011;22475;51.390;7.180;2022-12-18T10:56:48;2.65;;;1.52;;
36449;SDS011;22475;51.390;7.180;2022-12-18T10:59:16;2.05;;;1.33;;
36449;SDS011;22475;51.390;7.180;2022-12-18T11:01:48;2.80;;;1.85;;
36449;SDS011;22475;51.390;7.180;2022-12-18T11:04:17;3.13;;;2.15;;
36449;SDS011;22475;51.390;7.180;2022-12-18T11:06:52;2.45;;;1.80;;
36449;SDS011;22475;51.390;7.180;2022-12-18T11:09:22;1.73;;;1.35;;
36449;SDS011;22475;51.390;7.180;2022-12-18T11:11:50;1.60;;;1.40;;
36449;SDS011;22475;51.390;7.180;2022-12-18T11:14:20;1.60;;;1.50;;
36449;SDS011;22475;51.390;7.180;2022-12-18T11:16:50;1.88;;;1.52;;
36449;SDS011;22475;51.390;7.180;2022-12-18T11:19:20;5.43;;;1.17;;
36449;SDS011;22475;51.390;7.180;2022-12-18T11:21:52;3.88;;;1.58;;
36449;SDS011;22475;51.390;7.180;2022-12-18T11:24:20;4.35;;;1.63;;
36449;SDS011;22475;51.390;7.180;2022-12-18T11:26:53;3.65;;;1.55;;
36449;SDS011;22475;51.390;7.180;2022-12-18T11:29:22;6.57;;;2.10;;
36449;SDS011;22475;51.390;7.180;2022-12-18T11:31:55;4.55;;;1.83;;
36449;SDS011;22475;51.390;7.180;2022-12-18T11:35:02;2.83;;;2.08;;
36449;SDS011;22475;51.390;7.180;2022-12-18T11:37:35;2.10;;;1.33;;
36449;SDS011;22475;51.390;7.180;2022-12-18T11:40:06;4.97;;;1.90;;
36449;SDS011;22475;51.390;7.180;2022-12-18T11:42:38;4.07;;;2.03;;
36449;SDS011;22475;51.390;7.180;2022-12-18T11:45:20;2.75;;;1.83;;
36449;SDS011;22475;51.390;7.180;2022-12-18T11:47:54;2.28;;;1.45;;
36449;SDS011;22475;51.390;7.180;2022-12-18T11:50:25;3.58;;;1.60;;
36449;SDS011;22475;51.390;7.180;2022-12-18T11:52:55;10.82;;;2.33;;
36449;SDS011;22475;51.390;7.180;2022-12-18T11:55:25;3.50;;;1.83;;
36449;SDS011;22475;51.390;7.180;2022-12-18T11:57:58;1.95;;;1.75;;
36449;SDS011;22475;51.390;7.180;2022-12-18T12:00:34;2.45;;;1.70;;
36449;SDS011;22475;51.390;7.180;2022-12-18T12:03:10;4.85;;;1.75;;
36449;SDS011;22475;51.390;7.180;2022-12-18T12:05:56;2.65;;;2.10;;
36449;SDS011;22475;51.390;7.180;2022-12-18T12:08:32;4.75;;;1.55;;
36449;SDS011;22475;51.390;7.180;2022-12-18T12:11:10;5.47;;;1.98;;
36449;SDS011;22475;51.390;7.180;2022-12-18T12:13:49;2.20;;;2.00;;
36449;SDS011;22475;51.390;7.180;2022-12-18T12:16:25;2.13;;;1.83;;
36449;SDS011;22475;51.390;7.180;2022-12-18T12:19:02;3.05;;;1.75;;
36449;SDS011;22475;51.390;7.180;2022-12-18T12:21:42;4.72;;;1.58;;
36449;SDS011;22475;51.390;7.180;2022-12-18T12:24:19;2.88;;;2.08;;
36449;SDS011;22475;51.390;7.180;2022-12-18T12:27:00;2.17;;;1.48;;
36449;SDS011;22475;51.390;7.180;2022-12-18T12:29:38;2.60;;;1.73;;
36449;SDS011;22475;51.390;7.180;2022-12-18T12:32:20;2.97;;;2.28;;
36449;SDS011;22475;51.390;7.180;2022-12-18T12:35:00;2.50;;;2.13;;
36449;SDS011;22475;51.390;7.180;2022-12-18T12:37:38;2.95;;;2.10;;
36449;SDS011;22475;51.390;7.180;2022-12-18T12:40:11;3.78;;;2.40;;
36449;SDS011;22475;51.390;7.180;2022-12-18T12:42:43;3.83;;;1.95;;
36449;SDS011;22475;51.390;7.180;2022-12-18T12:45:33;3.42;;;2.22;;
36449;SDS011;22475;51.390;7.180;2022-12-18T12:48:03;3.60;;;1.85;;
36449;SDS011;22475;51.390;7.180;2022-12-18T12:50:33;2.67;;;2.05;;
36449;SDS011;22475;51.390;7.180;2022-12-18T12:53:01;4.05;;;2.38;;
36449;SDS011;22475;51.390;7.180;2022-12-18T12:55:34;2.53;;;2.33;;
36449;SDS011;22475;51.390;7.180;2022-12-18T12:58:05;4.00;;;1.98;;
36449;SDS011;22475;51.390;7.180;2022-12-18T13:00:41;2.35;;;2.03;;
36449;SDS011;22475;51.390;7.180;2022-12-18T13:03:18;4.90;;;2.50;;
36449;SDS011;22475;51.390;7.180;2022-12-18T13:05:58;3.10;;;2.60;;
36449;SDS011;22475;51.390;7.180;2022-12-18T13:08:30;4.43;;;2.65;;
36449;SDS011;22475;51.390;7.180;2022-12-18T13:10:58;3.20;;;2.28;;
36449;SDS011;22475;51.390;7.180;2022-12-18T13:13:50;10.88;;;2.83;;
36449;SDS011;22475;51.390;7.180;2022-12-18T13:16:19;4.57;;;2.88;;
36449;SDS011;22475;51.390;7.180;2022-12-18T13:18:48;3.53;;;2.90;;
36449;SDS011;22475;51.390;7.180;2022-12-18T13:21:18;5.70;;;2.83;;
36449;SDS011;22475;51.390;7.180;2022-12-18T13:23:49;3.53;;;2.67;;
36449;SDS011;22475;51.390;7.180;2022-12-18T13:26:29;3.55;;;2.22;;
36449;SDS011;22475;51.390;7.180;2022-12-18T13:28:59;4.50;;;3.33;;
36449;SDS011;22475;51.390;7.180;2022-12-18T13:34:25;9.25;;;3.38;;
36449;SDS011;22475;51.390;7.180;2022-12-18T13:36:55;4.53;;;3.17;;
36449;SDS011;22475;51.390;7.180;2022-12-18T13:39:26;3.72;;;3.35;;
36449;SDS011;22475;51.390;7.180;2022-12-18T13:45:39;3.15;;;2.75;;
36449;SDS011;22475;51.390;7.180;2022-12-18T13:48:14;6.25;;;2.90;;
36449;SDS011;22475;51.390;7.180;2022-12-18T13:50:55;4.03;;;3.13;;
36449;SDS011;22475;51.390;7.180;2022-12-18T13:53:26;6.60;;;3.15;;
36449;SDS011;22475;51.390;7.180;2022-12-18T13:55:56;6.25;;;2.92;;
36449;SDS011;22475;51.390;7.180;2022-12-18T13:58:24;2.75;;;2.17;;
36449;SDS011;22475;51.390;7.180;2022-12-18T14:00:52;4.85;;;3.08;;
36449;SDS011;22475;51.390;7.180;2022-12-18T14:03:20;5.15;;;3.42;;
36449;SDS011;22475;51.390;7.180;2022-12-18T14:05:52;4.72;;;3.00;;
36449;SDS011;22475;51.390;7.180;2022-12-18T14:08:24;5.20;;;2.92;;
36449;SDS011;22475;51.390;7.180;2022-12-18T14:10:56;7.97;;;4.63;;
36449;SDS011;22475;51.390;7.180;2022-12-18T14:13:24;5.90;;;3.75;;
36449;SDS011;22475;51.390;7.180;2022-12-18T14:15:56;6.45;;;4.03;;
36449;SDS011;22475;51.390;7.180;2022-12-18T14:21:02;7.00;;;3.47;;
36449;SDS011;22475;51.390;7.180;2022-12-18T14:23:32;5.78;;;3.83;;
36449;SDS011;22475;51.390;7.180;2022-12-18T14:26:00;7.97;;;3.70;;
36449;SDS011;22475;51.390;7.180;2022-12-18T14:28:28;7.35;;;4.00;;
36449;SDS011;22475;51.390;7.180;2022-12-18T14:30:56;6.95;;;4.00;;
36449;SDS011;22475;51.390;7.180;2022-12-18T14:33:24;8.68;;;5.35;;
36449;SDS011;22475;51.390;7.180;2022-12-18T14:35:57;5.72;;;4.20;;
36449;SDS011;22475;51.390;7.180;2022-12-18T14:38:27;6.85;;;4.43;;
36449;SDS011;22475;51.390;7.180;2022-12-18T14:40:56;5.25;;;4.32;;
36449;SDS011;22475;51.390;7.180;2022-12-18T14:43:23;7.03;;;4.47;;
36449;SDS011;22475;51.390;7.180;2022-12-18T14:45:51;3.05;;;2.50;;
36449;SDS011;22475;51.390;7.180;2022-12-18T14:48:21;6.28;;;4.13;;
36449;SDS011;22475;51.390;7.180;2022-12-18T14:50:56;6.05;;;4.07;;
36449;SDS011;22475;51.390;7.180;2022-12-18T14:53:28;10.00;;;4.90;;
36449;SDS011;22475;51.390;7.180;2022-12-18T14:56:00;6.13;;;3.88;;
36449;SDS011;22475;51.390;7.180;2022-12-18T14:58:28;7.85;;;4.60;;
36449;SDS011;22475;51.390;7.180;2022-12-18T15:00:55;6.65;;;4.88;;
36449;SDS011;22475;51.390;7.180;2022-12-18T15:03:23;9.75;;;4.55;;
36449;SDS011;22475;51.390;7.180;2022-12-18T15:05:50;10.05;;;5.22;;
36449;SDS011;22475;51.390;7.180;2022-12-18T15:08:28;7.47;;;4.68;;
36449;SDS011;22475;51.390;7.180;2022-12-18T15:10:56;7.93;;;3.90;;
36449;SDS011;22475;51.390;7.180;2022-12-18T15:13:23;5.32;;;3.95;;
36449;SDS011;22475;51.390;7.180;2022-12-18T15:15:51;9.35;;;5.13;;
36449;SDS011;22475;51.390;7.180;2022-12-18T15:18:19;5.53;;;4.10;;